Terminal Aerodrome Forecast
Issued by NWS

Home | Current Version | Previous Version | Text Only | Print | Product List | Glossary On
Versions: 1 2 3 4 5 6 7 8 9 10 11 12 13 14 15 16 17 18 19 20 21 22 23 24
000
FTUS46 KLOX 240530
TAFSBP
TAF
KSBP 240530Z 2406/2506 VRB03KT P6SM SCT250
     FM241800 20006KT P6SM BKN100 OVC250
     FM242200 26012KT P6SM SCT070 OVC100
     FM250200 26008KT P6SM -RA OVC080
     FM250500 24008KT P6SM -RA OVC025=

USA.gov is the U.S. government's official web portal to all federal, state and local government web resources and services.